sensor_id;sensor_type;location;lat;lon;timestamp;P1;durP1;ratioP1;P2;durP2;ratioP2
62435;SDS011;48480;50.252;18.848;2022-11-11T00:02:24;41.30;;;25.70;;
62435;SDS011;48480;50.252;18.848;2022-11-11T00:04:49;44.40;;;25.50;;
62435;SDS011;48480;50.252;18.848;2022-11-11T00:07:14;46.40;;;25.30;;
62435;SDS011;48480;50.252;18.848;2022-11-11T00:09:40;41.50;;;27.00;;
62435;SDS011;48480;50.252;18.848;2022-11-11T00:12:05;44.40;;;25.40;;
62435;SDS011;48480;50.252;18.848;2022-11-11T00:14:31;43.90;;;26.70;;
62435;SDS011;48480;50.252;18.848;2022-11-11T00:16:56;45.70;;;26.00;;
62435;SDS011;48480;50.252;18.848;2022-11-11T00:19:41;44.00;;;25.00;;
62435;SDS011;48480;50.252;18.848;2022-11-11T00:22:25;43.70;;;25.30;;
62435;SDS011;48480;50.252;18.848;2022-11-11T00:25:09;39.40;;;24.20;;
62435;SDS011;48480;50.252;18.848;2022-11-11T00:27:37;42.50;;;23.70;;
62435;SDS011;48480;50.252;18.848;2022-11-11T00:30:04;45.40;;;25.30;;
62435;SDS011;48480;50.252;18.848;2022-11-11T00:32:31;45.90;;;27.00;;
62435;SDS011;48480;50.252;18.848;2022-11-11T00:34:58;41.90;;;24.90;;
62435;SDS011;48480;50.252;18.848;2022-11-11T00:37:44;39.00;;;24.90;;
62435;SDS011;48480;50.252;18.848;2022-11-11T00:40:13;44.70;;;25.20;;
62435;SDS011;48480;50.252;18.848;2022-11-11T00:42:39;43.40;;;25.70;;
62435;SDS011;48480;50.252;18.848;2022-11-11T00:45:05;40.70;;;24.30;;
62435;SDS011;48480;50.252;18.848;2022-11-11T00:47:32;42.90;;;24.40;;
62435;SDS011;48480;50.252;18.848;2022-11-11T00:50:18;39.90;;;24.40;;
62435;SDS011;48480;50.252;18.848;2022-11-11T00:53:13;41.20;;;24.50;;
62435;SDS011;48480;50.252;18.848;2022-11-11T00:55:42;36.70;;;22.40;;
62435;SDS011;48480;50.252;18.848;2022-11-11T00:58:08;37.40;;;23.30;;
62435;SDS011;48480;50.252;18.848;2022-11-11T01:00:33;37.00;;;23.30;;
62435;SDS011;48480;50.252;18.848;2022-11-11T01:02:59;32.80;;;21.30;;
62435;SDS011;48480;50.252;18.848;2022-11-11T01:05:25;36.40;;;23.20;;
62435;SDS011;48480;50.252;18.848;2022-11-11T01:07:51;33.50;;;22.10;;
62435;SDS011;48480;50.252;18.848;2022-11-11T01:10:17;35.70;;;22.40;;
62435;SDS011;48480;50.252;18.848;2022-11-11T01:13:06;33.30;;;22.20;;
62435;SDS011;48480;50.252;18.848;2022-11-11T01:15:40;35.00;;;21.60;;
62435;SDS011;48480;50.252;18.848;2022-11-11T01:18:08;37.20;;;21.10;;
62435;SDS011;48480;50.252;18.848;2022-11-11T01:20:36;34.60;;;21.70;;
62435;SDS011;48480;50.252;18.848;2022-11-11T01:23:05;33.70;;;21.30;;
62435;SDS011;48480;50.252;18.848;2022-11-11T01:25:33;36.90;;;21.70;;
62435;SDS011;48480;50.252;18.848;2022-11-11T01:28:00;32.50;;;19.50;;
62435;SDS011;48480;50.252;18.848;2022-11-11T01:30:26;36.90;;;20.50;;
62435;SDS011;48480;50.252;18.848;2022-11-11T01:32:52;29.10;;;20.30;;
62435;SDS011;48480;50.252;18.848;2022-11-11T01:35:17;33.30;;;20.00;;
62435;SDS011;48480;50.252;18.848;2022-11-11T01:37:43;28.30;;;18.00;;
62435;SDS011;48480;50.252;18.848;2022-11-11T01:40:08;30.00;;;20.40;;
62435;SDS011;48480;50.252;18.848;2022-11-11T01:48:21;30.00;;;18.90;;
62435;SDS011;48480;50.252;18.848;2022-11-11T01:51:12;29.60;;;18.00;;
62435;SDS011;48480;50.252;18.848;2022-11-11T01:53:43;24.00;;;15.70;;
62435;SDS011;48480;50.252;18.848;2022-11-11T01:56:10;30.20;;;18.20;;
62435;SDS011;48480;50.252;18.848;2022-11-11T01:58:36;28.00;;;18.00;;
62435;SDS011;48480;50.252;18.848;2022-11-11T02:01:02;29.30;;;18.10;;
62435;SDS011;48480;50.252;18.848;2022-11-11T02:03:29;30.80;;;19.60;;
62435;SDS011;48480;50.252;18.848;2022-11-11T02:05:58;32.70;;;18.70;;
62435;SDS011;48480;50.252;18.848;2022-11-11T02:08:25;27.70;;;17.80;;
62435;SDS011;48480;50.252;18.848;2022-11-11T02:11:08;29.00;;;19.60;;
62435;SDS011;48480;50.252;18.848;2022-11-11T02:13:37;29.30;;;18.50;;
62435;SDS011;48480;50.252;18.848;2022-11-11T02:16:23;32.60;;;20.00;;
62435;SDS011;48480;50.252;18.848;2022-11-11T02:18:49;30.50;;;19.10;;
62435;SDS011;48480;50.252;18.848;2022-11-11T02:21:18;30.10;;;19.70;;
62435;SDS011;48480;50.252;18.848;2022-11-11T02:24:02;32.90;;;19.40;;
62435;SDS011;48480;50.252;18.848;2022-11-11T02:26:33;29.30;;;18.50;;
62435;SDS011;48480;50.252;18.848;2022-11-11T02:29:01;29.60;;;20.20;;
62435;SDS011;48480;50.252;18.848;2022-11-11T02:31:31;33.20;;;18.30;;
62435;SDS011;48480;50.252;18.848;2022-11-11T02:33:57;29.00;;;18.00;;
62435;SDS011;48480;50.252;18.848;2022-11-11T02:36:22;28.40;;;18.70;;
62435;SDS011;48480;50.252;18.848;2022-11-11T02:38:48;27.40;;;18.30;;
62435;SDS011;48480;50.252;18.848;2022-11-11T02:41:14;28.80;;;19.70;;
62435;SDS011;48480;50.252;18.848;2022-11-11T02:43:58;31.80;;;18.50;;
62435;SDS011;48480;50.252;18.848;2022-11-11T02:46:23;31.40;;;19.00;;
62435;SDS011;48480;50.252;18.848;2022-11-11T02:48:48;26.30;;;16.90;;
62435;SDS011;48480;50.252;18.848;2022-11-11T02:51:14;27.20;;;18.20;;
62435;SDS011;48480;50.252;18.848;2022-11-11T02:53:39;29.20;;;18.60;;
62435;SDS011;48480;50.252;18.848;2022-11-11T02:56:05;28.00;;;17.60;;
62435;SDS011;48480;50.252;18.848;2022-11-11T02:58:30;28.90;;;18.10;;
62435;SDS011;48480;50.252;18.848;2022-11-11T03:00:56;27.00;;;17.90;;
62435;SDS011;48480;50.252;18.848;2022-11-11T03:03:22;30.10;;;19.00;;
62435;SDS011;48480;50.252;18.848;2022-11-11T03:05:47;29.30;;;19.20;;
62435;SDS011;48480;50.252;18.848;2022-11-11T03:08:12;25.50;;;16.70;;
62435;SDS011;48480;50.252;18.848;2022-11-11T03:10:38;29.70;;;16.70;;
62435;SDS011;48480;50.252;18.848;2022-11-11T03:13:03;23.80;;;16.60;;
62435;SDS011;48480;50.252;18.848;2022-11-11T03:15:29;27.40;;;17.80;;
62435;SDS011;48480;50.252;18.848;2022-11-11T03:17:54;26.80;;;16.40;;
62435;SDS011;48480;50.252;18.848;2022-11-11T03:20:19;22.30;;;15.80;;
62435;SDS011;48480;50.252;18.848;2022-11-11T03:23:05;28.40;;;17.70;;
62435;SDS011;48480;50.252;18.848;2022-11-11T03:25:32;29.40;;;17.30;;
62435;SDS011;48480;50.252;18.848;2022-11-11T03:28:05;29.40;;;17.70;;
62435;SDS011;48480;50.252;18.848;2022-11-11T03:30:35;26.10;;;18.30;;
62435;SDS011;48480;50.252;18.848;2022-11-11T03:33:02;28.10;;;18.50;;
62435;SDS011;48480;50.252;18.848;2022-11-11T03:35:28;29.80;;;18.90;;
62435;SDS011;48480;50.252;18.848;2022-11-11T03:37:54;31.20;;;20.40;;
62435;SDS011;48480;50.252;18.848;2022-11-11T03:40:38;29.70;;;19.00;;
62435;SDS011;48480;50.252;18.848;2022-11-11T03:43:03;29.00;;;20.90;;
62435;SDS011;48480;50.252;18.848;2022-11-11T03:45:29;28.10;;;18.90;;
62435;SDS011;48480;50.252;18.848;2022-11-11T03:47:55;30.80;;;20.60;;
62435;SDS011;48480;50.252;18.848;2022-11-11T03:50:20;33.50;;;21.50;;
62435;SDS011;48480;50.252;18.848;2022-11-11T03:52:46;33.40;;;21.40;;
62435;SDS011;48480;50.252;18.848;2022-11-11T03:55:11;32.30;;;22.40;;
62435;SDS011;48480;50.252;18.848;2022-11-11T03:57:41;32.00;;;20.50;;
62435;SDS011;48480;50.252;18.848;2022-11-11T04:00:10;29.80;;;21.80;;
62435;SDS011;48480;50.252;18.848;2022-11-11T04:02:37;34.40;;;22.30;;
62435;SDS011;48480;50.252;18.848;2022-11-11T04:05:21;32.30;;;21.40;;
62435;SDS011;48480;50.252;18.848;2022-11-11T04:08:08;34.30;;;22.60;;
62435;SDS011;48480;50.252;18.848;2022-11-11T04:10:57;34.20;;;21.60;;
62435;SDS011;48480;50.252;18.848;2022-11-11T04:13:26;32.80;;;22.70;;
62435;SDS011;48480;50.252;18.848;2022-11-11T04:16:10;32.40;;;22.50;;
62435;SDS011;48480;50.252;18.848;2022-11-11T04:18:36;35.40;;;22.50;;
62435;SDS011;48480;50.252;18.848;2022-11-11T04:21:21;31.70;;;20.80;;
62435;SDS011;48480;50.252;18.848;2022-11-11T04:24:07;31.30;;;22.80;;
62435;SDS011;48480;50.252;18.848;2022-11-11T04:26:59;34.80;;;23.10;;
62435;SDS011;48480;50.252;18.848;2022-11-11T04:29:25;32.70;;;22.60;;
62435;SDS011;48480;50.252;18.848;2022-11-11T04:31:55;33.90;;;22.60;;
62435;SDS011;48480;50.252;18.848;2022-11-11T04:34:39;37.20;;;21.70;;
62435;SDS011;48480;50.252;18.848;2022-11-11T04:37:06;29.70;;;20.90;;
62435;SDS011;48480;50.252;18.848;2022-11-11T04:39:32;31.60;;;21.60;;
62435;SDS011;48480;50.252;18.848;2022-11-11T04:42:16;28.90;;;19.50;;
62435;SDS011;48480;50.252;18.848;2022-11-11T04:44:41;29.90;;;20.10;;
62435;SDS011;48480;50.252;18.848;2022-11-11T04:47:26;29.30;;;19.40;;
62435;SDS011;48480;50.252;18.848;2022-11-11T04:49:51;31.70;;;19.60;;
62435;SDS011;48480;50.252;18.848;2022-11-11T04:52:16;28.90;;;20.10;;
62435;SDS011;48480;50.252;18.848;2022-11-11T04:54:54;27.20;;;19.10;;
62435;SDS011;48480;50.252;18.848;2022-11-11T04:57:43;32.10;;;21.20;;
62435;SDS011;48480;50.252;18.848;2022-11-11T05:00:19;29.10;;;19.70;;
62435;SDS011;48480;50.252;18.848;2022-11-11T05:02:44;29.30;;;19.80;;
62435;SDS011;48480;50.252;18.848;2022-11-11T05:05:29;31.00;;;18.80;;
62435;SDS011;48480;50.252;18.848;2022-11-11T05:08:18;28.40;;;18.90;;
62435;SDS011;48480;50.252;18.848;2022-11-11T05:11:02;28.40;;;18.90;;
62435;SDS011;48480;50.252;18.848;2022-11-11T05:13:28;29.40;;;19.90;;
62435;SDS011;48480;50.252;18.848;2022-11-11T05:16:13;28.30;;;18.00;;
62435;SDS011;48480;50.252;18.848;2022-11-11T05:19:01;26.50;;;17.40;;
62435;SDS011;48480;50.252;18.848;2022-11-11T05:21:45;30.80;;;16.50;;
62435;SDS011;48480;50.252;18.848;2022-11-11T05:24:11;30.10;;;18.70;;
62435;SDS011;48480;50.252;18.848;2022-11-11T05:26:55;25.60;;;17.50;;
62435;SDS011;48480;50.252;18.848;2022-11-11T05:29:20;29.20;;;19.40;;
62435;SDS011;48480;50.252;18.848;2022-11-11T05:31:45;29.80;;;18.20;;
62435;SDS011;48480;50.252;18.848;2022-11-11T05:34:11;27.30;;;18.90;;
62435;SDS011;48480;50.252;18.848;2022-11-11T05:36:36;26.50;;;18.00;;
62435;SDS011;48480;50.252;18.848;2022-11-11T05:39:01;30.90;;;18.70;;
62435;SDS011;48480;50.252;18.848;2022-11-11T05:41:27;25.60;;;17.20;;
62435;SDS011;48480;50.252;18.848;2022-11-11T05:43:52;26.50;;;17.80;;
62435;SDS011;48480;50.252;18.848;2022-11-11T05:46:18;31.50;;;20.10;;
62435;SDS011;48480;50.252;18.848;2022-11-11T05:48:43;32.20;;;21.80;;
62435;SDS011;48480;50.252;18.848;2022-11-11T05:51:27;31.90;;;20.70;;
62435;SDS011;48480;50.252;18.848;2022-11-11T05:53:53;33.70;;;19.50;;
62435;SDS011;48480;50.252;18.848;2022-11-11T05:56:20;32.90;;;20.00;;
62435;SDS011;48480;50.252;18.848;2022-11-11T05:58:45;30.80;;;17.50;;
62435;SDS011;48480;50.252;18.848;2022-11-11T06:01:11;25.60;;;16.50;;
62435;SDS011;48480;50.252;18.848;2022-11-11T06:03:36;29.20;;;18.50;;
62435;SDS011;48480;50.252;18.848;2022-11-11T06:06:01;28.50;;;18.10;;
62435;SDS011;48480;50.252;18.848;2022-11-11T06:08:27;25.80;;;17.00;;
62435;SDS011;48480;50.252;18.848;2022-11-11T06:10:52;30.00;;;17.60;;
62435;SDS011;48480;50.252;18.848;2022-11-11T06:13:17;27.40;;;17.30;;
62435;SDS011;48480;50.252;18.848;2022-11-11T06:15:43;24.50;;;15.90;;
62435;SDS011;48480;50.252;18.848;2022-11-11T06:18:08;28.20;;;17.40;;
62435;SDS011;48480;50.252;18.848;2022-11-11T06:20:33;26.90;;;16.70;;
62435;SDS011;48480;50.252;18.848;2022-11-11T06:22:59;28.30;;;17.60;;
62435;SDS011;48480;50.252;18.848;2022-11-11T06:25:27;25.40;;;15.80;;
62435;SDS011;48480;50.252;18.848;2022-11-11T06:28:14;26.40;;;17.40;;
62435;SDS011;48480;50.252;18.848;2022-11-11T06:30:40;27.60;;;16.10;;
62435;SDS011;48480;50.252;18.848;2022-11-11T06:33:06;27.30;;;16.60;;
62435;SDS011;48480;50.252;18.848;2022-11-11T06:35:36;25.20;;;16.50;;
62435;SDS011;48480;50.252;18.848;2022-11-11T06:38:03;22.30;;;15.30;;
62435;SDS011;48480;50.252;18.848;2022-11-11T06:40:29;22.60;;;16.00;;
62435;SDS011;48480;50.252;18.848;2022-11-11T06:42:58;25.20;;;15.20;;
62435;SDS011;48480;50.252;18.848;2022-11-11T06:45:24;23.40;;;15.80;;
62435;SDS011;48480;50.252;18.848;2022-11-11T06:47:51;21.20;;;14.90;;
62435;SDS011;48480;50.252;18.848;2022-11-11T06:50:16;22.70;;;14.10;;
62435;SDS011;48480;50.252;18.848;2022-11-11T06:52:42;27.60;;;14.80;;
62435;SDS011;48480;50.252;18.848;2022-11-11T06:55:07;22.90;;;14.70;;
62435;SDS011;48480;50.252;18.848;2022-11-11T06:57:33;24.70;;;15.40;;
62435;SDS011;48480;50.252;18.848;2022-11-11T06:59:58;23.40;;;15.10;;
62435;SDS011;48480;50.252;18.848;2022-11-11T07:02:24;25.40;;;14.80;;
62435;SDS011;48480;50.252;18.848;2022-11-11T07:04:49;23.70;;;14.90;;
62435;SDS011;48480;50.252;18.848;2022-11-11T07:07:15;21.90;;;15.20;;
62435;SDS011;48480;50.252;18.848;2022-11-11T07:09:41;24.70;;;14.00;;
62435;SDS011;48480;50.252;18.848;2022-11-11T07:12:07;23.10;;;13.80;;
62435;SDS011;48480;50.252;18.848;2022-11-11T07:14:33;22.70;;;14.60;;
62435;SDS011;48480;50.252;18.848;2022-11-11T07:16:59;22.40;;;14.80;;
62435;SDS011;48480;50.252;18.848;2022-11-11T07:19:24;25.20;;;14.30;;
62435;SDS011;48480;50.252;18.848;2022-11-11T07:21:49;26.10;;;15.50;;
62435;SDS011;48480;50.252;18.848;2022-11-11T07:24:15;26.80;;;15.80;;
62435;SDS011;48480;50.252;18.848;2022-11-11T07:26:40;25.20;;;15.90;;
62435;SDS011;48480;50.252;18.848;2022-11-11T07:29:06;29.20;;;17.00;;
62435;SDS011;48480;50.252;18.848;2022-11-11T07:31:32;25.90;;;16.40;;
62435;SDS011;48480;50.252;18.848;2022-11-11T07:33:58;28.70;;;17.40;;
62435;SDS011;48480;50.252;18.848;2022-11-11T07:36:23;28.80;;;18.30;;
62435;SDS011;48480;50.252;18.848;2022-11-11T07:38:48;27.30;;;17.50;;
62435;SDS011;48480;50.252;18.848;2022-11-11T07:41:14;25.80;;;17.80;;
62435;SDS011;48480;50.252;18.848;2022-11-11T07:43:39;27.10;;;17.80;;
62435;SDS011;48480;50.252;18.848;2022-11-11T07:46:05;31.20;;;20.00;;
62435;SDS011;48480;50.252;18.848;2022-11-11T07:48:30;30.60;;;18.50;;
62435;SDS011;48480;50.252;18.848;2022-11-11T07:50:55;28.70;;;19.50;;
62435;SDS011;48480;50.252;18.848;2022-11-11T07:53:29;29.20;;;16.80;;
62435;SDS011;48480;50.252;18.848;2022-11-11T07:56:05;23.40;;;13.80;;
62435;SDS011;48480;50.252;18.848;2022-11-11T07:58:30;21.50;;;13.00;;
62435;SDS011;48480;50.252;18.848;2022-11-11T08:00:58;21.90;;;13.60;;
62435;SDS011;48480;50.252;18.848;2022-11-11T08:03:27;20.30;;;12.50;;
62435;SDS011;48480;50.252;18.848;2022-11-11T08:05:56;20.20;;;12.30;;
62435;SDS011;48480;50.252;18.848;2022-11-11T08:08:22;20.70;;;12.70;;
62435;SDS011;48480;50.252;18.848;2022-11-11T08:10:54;17.90;;;11.60;;
62435;SDS011;48480;50.252;18.848;2022-11-11T08:13:20;19.40;;;12.10;;
62435;SDS011;48480;50.252;18.848;2022-11-11T08:16:04;17.70;;;12.50;;
62435;SDS011;48480;50.252;18.848;2022-11-11T08:18:33;15.60;;;10.70;;
62435;SDS011;48480;50.252;18.848;2022-11-11T08:20:59;18.10;;;12.20;;
62435;SDS011;48480;50.252;18.848;2022-11-11T08:23:27;18.20;;;11.10;;
62435;SDS011;48480;50.252;18.848;2022-11-11T08:25:59;20.00;;;11.50;;
62435;SDS011;48480;50.252;18.848;2022-11-11T08:28:26;19.40;;;12.10;;
62435;SDS011;48480;50.252;18.848;2022-11-11T08:30:52;19.40;;;11.90;;
62435;SDS011;48480;50.252;18.848;2022-11-11T08:33:18;18.30;;;11.90;;
62435;SDS011;48480;50.252;18.848;2022-11-11T08:35:44;19.60;;;12.10;;
62435;SDS011;48480;50.252;18.848;2022-11-11T08:38:09;17.70;;;12.40;;
62435;SDS011;48480;50.252;18.848;2022-11-11T08:40:35;16.20;;;11.10;;
62435;SDS011;48480;50.252;18.848;2022-11-11T08:43:00;18.90;;;11.00;;
62435;SDS011;48480;50.252;18.848;2022-11-11T08:45:26;21.80;;;12.40;;
62435;SDS011;48480;50.252;18.848;2022-11-11T08:47:52;18.70;;;12.20;;
62435;SDS011;48480;50.252;18.848;2022-11-11T08:50:17;20.90;;;12.60;;
62435;SDS011;48480;50.252;18.848;2022-11-11T08:52:50;19.40;;;11.60;;
62435;SDS011;48480;50.252;18.848;2022-11-11T08:55:16;17.50;;;11.30;;
62435;SDS011;48480;50.252;18.848;2022-11-11T08:57:43;17.30;;;11.70;;
62435;SDS011;48480;50.252;18.848;2022-11-11T09:00:09;17.60;;;11.20;;
62435;SDS011;48480;50.252;18.848;2022-11-11T09:02:36;17.90;;;12.20;;
62435;SDS011;48480;50.252;18.848;2022-11-11T09:05:02;19.60;;;11.60;;
62435;SDS011;48480;50.252;18.848;2022-11-11T09:07:28;18.50;;;12.60;;
62435;SDS011;48480;50.252;18.848;2022-11-11T09:09:53;18.90;;;11.70;;
62435;SDS011;48480;50.252;18.848;2022-11-11T09:12:19;20.40;;;12.30;;
62435;SDS011;48480;50.252;18.848;2022-11-11T09:14:45;20.50;;;12.50;;
62435;SDS011;48480;50.252;18.848;2022-11-11T09:17:10;18.90;;;11.70;;
62435;SDS011;48480;50.252;18.848;2022-11-11T09:19:36;19.20;;;12.20;;
62435;SDS011;48480;50.252;18.848;2022-11-11T09:22:01;16.10;;;9.60;;
62435;SDS011;48480;50.252;18.848;2022-11-11T09:24:27;19.70;;;12.90;;
62435;SDS011;48480;50.252;18.848;2022-11-11T09:26:52;25.40;;;15.40;;
62435;SDS011;48480;50.252;18.848;2022-11-11T09:29:18;21.00;;;13.60;;
62435;SDS011;48480;50.252;18.848;2022-11-11T09:31:45;36.10;;;20.00;;
62435;SDS011;48480;50.252;18.848;2022-11-11T09:34:14;20.50;;;13.50;;
62435;SDS011;48480;50.252;18.848;2022-11-11T09:36:39;22.00;;;14.90;;
62435;SDS011;48480;50.252;18.848;2022-11-11T09:39:06;23.20;;;13.20;;
62435;SDS011;48480;50.252;18.848;2022-11-11T09:44:41;22.40;;;13.60;;
62435;SDS011;48480;50.252;18.848;2022-11-11T09:50:09;24.80;;;15.00;;
62435;SDS011;48480;50.252;18.848;2022-11-11T09:55:15;25.60;;;14.30;;
62435;SDS011;48480;50.252;18.848;2022-11-11T09:57:53;20.50;;;13.80;;
62435;SDS011;48480;50.252;18.848;2022-11-11T10:00:28;24.10;;;13.50;;
62435;SDS011;48480;50.252;18.848;2022-11-11T10:03:00;21.40;;;12.80;;
62435;SDS011;48480;50.252;18.848;2022-11-11T10:05:45;21.50;;;12.40;;
62435;SDS011;48480;50.252;18.848;2022-11-11T10:08:20;21.50;;;11.70;;
62435;SDS011;48480;50.252;18.848;2022-11-11T10:10:53;22.10;;;13.00;;
62435;SDS011;48480;50.252;18.848;2022-11-11T10:13:25;22.70;;;13.00;;
62435;SDS011;48480;50.252;18.848;2022-11-11T10:21:30;23.60;;;13.70;;
62435;SDS011;48480;50.252;18.848;2022-11-11T10:24:16;22.90;;;14.40;;
62435;SDS011;48480;50.252;18.848;2022-11-11T10:26:50;24.60;;;15.30;;
62435;SDS011;48480;50.252;18.848;2022-11-11T10:29:17;24.90;;;13.30;;
62435;SDS011;48480;50.252;18.848;2022-11-11T10:32:05;23.30;;;13.40;;
62435;SDS011;48480;50.252;18.848;2022-11-11T10:34:56;22.20;;;12.80;;
62435;SDS011;48480;50.252;18.848;2022-11-11T10:37:38;22.70;;;12.50;;
62435;SDS011;48480;50.252;18.848;2022-11-11T10:42:53;23.70;;;14.50;;
62435;SDS011;48480;50.252;18.848;2022-11-11T10:48:03;17.30;;;11.30;;
62435;SDS011;48480;50.252;18.848;2022-11-11T10:50:38;18.20;;;10.50;;
62435;SDS011;48480;50.252;18.848;2022-11-11T10:55:48;20.50;;;12.10;;
62435;SDS011;48480;50.252;18.848;2022-11-11T10:58:26;21.10;;;12.30;;
62435;SDS011;48480;50.252;18.848;2022-11-11T11:01:15;20.10;;;11.10;;
62435;SDS011;48480;50.252;18.848;2022-11-11T11:03:57;15.40;;;10.00;;
62435;SDS011;48480;50.252;18.848;2022-11-11T11:06:30;18.30;;;11.60;;
62435;SDS011;48480;50.252;18.848;2022-11-11T11:09:02;17.70;;;10.40;;
62435;SDS011;48480;50.252;18.848;2022-11-11T11:12:02;17.50;;;11.00;;
62435;SDS011;48480;50.252;18.848;2022-11-11T11:14:36;17.70;;;11.70;;
62435;SDS011;48480;50.252;18.848;2022-11-11T11:20:08;15.80;;;10.20;;
62435;SDS011;48480;50.252;18.848;2022-11-11T11:22:44;17.10;;;9.70;;
62435;SDS011;48480;50.252;18.848;2022-11-11T11:25:21;14.90;;;9.70;;
62435;SDS011;48480;50.252;18.848;2022-11-11T11:27:51;16.00;;;11.10;;
62435;SDS011;48480;50.252;18.848;2022-11-11T11:30:21;17.50;;;10.90;;
62435;SDS011;48480;50.252;18.848;2022-11-11T11:32:54;15.10;;;10.80;;
62435;SDS011;48480;50.252;18.848;2022-11-11T11:35:29;14.50;;;10.30;;
62435;SDS011;48480;50.252;18.848;2022-11-11T11:40:43;13.30;;;9.10;;
62435;SDS011;48480;50.252;18.848;2022-11-11T11:46:27;14.40;;;8.70;;
62435;SDS011;48480;50.252;18.848;2022-11-11T11:49:05;13.60;;;8.40;;
62435;SDS011;48480;50.252;18.848;2022-11-11T11:51:44;12.70;;;8.50;;
62435;SDS011;48480;50.252;18.848;2022-11-11T11:56:59;13.20;;;8.40;;
62435;SDS011;48480;50.252;18.848;2022-11-11T12:10:10;12.90;;;8.20;;
62435;SDS011;48480;50.252;18.848;2022-11-11T12:13:07;12.20;;;7.40;;
62435;SDS011;48480;50.252;18.848;2022-11-11T12:18:30;10.30;;;7.10;;
62435;SDS011;48480;50.252;18.848;2022-11-11T12:21:19;10.50;;;7.20;;
62435;SDS011;48480;50.252;18.848;2022-11-11T12:32:48;12.40;;;8.40;;
62435;SDS011;48480;50.252;18.848;2022-11-11T12:57:04;23.90;;;14.10;;
62435;SDS011;48480;50.252;18.848;2022-11-11T13:02:25;15.80;;;10.20;;
62435;SDS011;48480;50.252;18.848;2022-11-11T13:16:09;18.90;;;11.30;;
62435;SDS011;48480;50.252;18.848;2022-11-11T13:21:17;19.50;;;11.40;;
62435;SDS011;48480;50.252;18.848;2022-11-11T13:23:47;18.80;;;12.30;;
62435;SDS011;48480;50.252;18.848;2022-11-11T13:31:57;20.00;;;12.80;;
62435;SDS011;48480;50.252;18.848;2022-11-11T13:34:28;20.80;;;13.10;;
62435;SDS011;48480;50.252;18.848;2022-11-11T13:36:59;26.50;;;14.60;;
62435;SDS011;48480;50.252;18.848;2022-11-11T13:39:29;20.50;;;14.40;;
62435;SDS011;48480;50.252;18.848;2022-11-11T13:41:58;21.80;;;14.60;;
62435;SDS011;48480;50.252;18.848;2022-11-11T13:44:28;17.30;;;12.00;;
62435;SDS011;48480;50.252;18.848;2022-11-11T13:47:06;23.30;;;13.40;;
62435;SDS011;48480;50.252;18.848;2022-11-11T13:49:42;19.70;;;13.50;;
62435;SDS011;48480;50.252;18.848;2022-11-11T13:52:20;22.20;;;13.30;;
62435;SDS011;48480;50.252;18.848;2022-11-11T13:54:57;21.70;;;12.40;;
62435;SDS011;48480;50.252;18.848;2022-11-11T13:57:26;18.30;;;13.20;;
62435;SDS011;48480;50.252;18.848;2022-11-11T14:02:26;19.40;;;13.40;;
62435;SDS011;48480;50.252;18.848;2022-11-11T14:15:53;27.20;;;17.30;;
62435;SDS011;48480;50.252;18.848;2022-11-11T14:20:45;28.30;;;17.70;;
62435;SDS011;48480;50.252;18.848;2022-11-11T14:28:31;21.40;;;14.80;;
62435;SDS011;48480;50.252;18.848;2022-11-11T14:39:35;21.20;;;14.60;;
62435;SDS011;48480;50.252;18.848;2022-11-11T14:44:58;22.80;;;16.00;;
62435;SDS011;48480;50.252;18.848;2022-11-11T14:47:24;23.30;;;14.90;;
62435;SDS011;48480;50.252;18.848;2022-11-11T14:49:55;21.90;;;15.00;;
62435;SDS011;48480;50.252;18.848;2022-11-11T14:52:39;24.70;;;16.60;;
62435;SDS011;48480;50.252;18.848;2022-11-11T14:57:58;27.90;;;19.40;;
62435;SDS011;48480;50.252;18.848;2022-11-11T15:03:39;35.10;;;20.70;;
62435;SDS011;48480;50.252;18.848;2022-11-11T15:06:17;48.10;;;24.90;;
62435;SDS011;48480;50.252;18.848;2022-11-11T15:27:55;40.20;;;22.40;;
62435;SDS011;48480;50.252;18.848;2022-11-11T15:30:53;34.20;;;20.60;;
62435;SDS011;48480;50.252;18.848;2022-11-11T15:33:24;31.70;;;20.00;;
62435;SDS011;48480;50.252;18.848;2022-11-11T15:36:12;29.30;;;18.90;;
62435;SDS011;48480;50.252;18.848;2022-11-11T15:38:50;37.80;;;21.20;;
62435;SDS011;48480;50.252;18.848;2022-11-11T15:41:23;35.40;;;21.00;;
62435;SDS011;48480;50.252;18.848;2022-11-11T15:43:51;32.80;;;20.30;;
62435;SDS011;48480;50.252;18.848;2022-11-11T15:46:23;36.40;;;22.70;;
62435;SDS011;48480;50.252;18.848;2022-11-11T15:48:51;42.30;;;26.80;;
62435;SDS011;48480;50.252;18.848;2022-11-11T15:53:48;40.80;;;27.00;;
62435;SDS011;48480;50.252;18.848;2022-11-11T15:56:31;33.10;;;23.90;;
62435;SDS011;48480;50.252;18.848;2022-11-11T15:58:57;37.70;;;25.50;;
62435;SDS011;48480;50.252;18.848;2022-11-11T16:01:40;42.10;;;29.20;;
62435;SDS011;48480;50.252;18.848;2022-11-11T16:04:09;42.70;;;27.50;;
62435;SDS011;48480;50.252;18.848;2022-11-11T16:06:42;39.60;;;26.50;;
62435;SDS011;48480;50.252;18.848;2022-11-11T16:09:10;39.70;;;25.10;;
62435;SDS011;48480;50.252;18.848;2022-11-11T16:11:42;39.30;;;23.80;;
62435;SDS011;48480;50.252;18.848;2022-11-11T16:14:09;42.90;;;27.60;;
62435;SDS011;48480;50.252;18.848;2022-11-11T16:17:02;42.70;;;29.10;;
62435;SDS011;48480;50.252;18.848;2022-11-11T16:19:32;39.70;;;26.70;;
62435;SDS011;48480;50.252;18.848;2022-11-11T16:22:08;38.00;;;24.80;;
62435;SDS011;48480;50.252;18.848;2022-11-11T16:24:36;39.90;;;25.70;;
62435;SDS011;48480;50.252;18.848;2022-11-11T16:27:04;38.40;;;25.60;;
62435;SDS011;48480;50.252;18.848;2022-11-11T16:29:38;39.20;;;23.00;;
62435;SDS011;48480;50.252;18.848;2022-11-11T16:34:48;43.20;;;25.50;;
62435;SDS011;48480;50.252;18.848;2022-11-11T16:37:15;46.20;;;26.40;;
62435;SDS011;48480;50.252;18.848;2022-11-11T16:39:42;42.50;;;26.60;;
62435;SDS011;48480;50.252;18.848;2022-11-11T16:42:21;44.30;;;26.80;;
62435;SDS011;48480;50.252;18.848;2022-11-11T16:44:59;39.70;;;25.90;;
62435;SDS011;48480;50.252;18.848;2022-11-11T16:50:04;35.90;;;21.50;;
62435;SDS011;48480;50.252;18.848;2022-11-11T16:52:30;37.70;;;23.50;;
62435;SDS011;48480;50.252;18.848;2022-11-11T16:55:22;36.20;;;23.50;;
62435;SDS011;48480;50.252;18.848;2022-11-11T16:57:54;38.10;;;26.20;;
62435;SDS011;48480;50.252;18.848;2022-11-11T17:00:22;38.80;;;23.60;;
62435;SDS011;48480;50.252;18.848;2022-11-11T17:03:08;39.30;;;23.90;;
62435;SDS011;48480;50.252;18.848;2022-11-11T17:11:06;40.60;;;24.40;;
62435;SDS011;48480;50.252;18.848;2022-11-11T17:16:03;38.50;;;22.70;;
62435;SDS011;48480;50.252;18.848;2022-11-11T17:18:38;40.00;;;22.20;;
62435;SDS011;48480;50.252;18.848;2022-11-11T17:21:04;36.70;;;21.90;;
62435;SDS011;48480;50.252;18.848;2022-11-11T17:23:31;39.30;;;22.50;;
62435;SDS011;48480;50.252;18.848;2022-11-11T17:25:57;38.10;;;23.90;;
62435;SDS011;48480;50.252;18.848;2022-11-11T17:28:35;49.60;;;28.20;;
62435;SDS011;48480;50.252;18.848;2022-11-11T17:31:07;48.60;;;28.10;;